sensor_id;sensor_type;location;lat;lon;timestamp;pressure;altitude;pressure_sealevel;temperature;humidity
44140;BME280;29803;51.048;4.686;2022-08-03T00:01:58;101560.09;;;18.20;100.00
44140;BME280;29803;51.048;4.686;2022-08-03T00:04:28;101563.63;;;18.14;100.00
44140;BME280;29803;51.048;4.686;2022-08-03T00:06:59;101558.78;;;18.09;100.00
44140;BME280;29803;51.048;4.686;2022-08-03T00:09:29;101559.38;;;18.05;100.00
44140;BME280;29803;51.048;4.686;2022-08-03T00:12:00;101567.72;;;18.03;100.00
44140;BME280;29803;51.048;4.686;2022-08-03T00:14:30;101562.88;;;17.99;100.00
44140;BME280;29803;51.048;4.686;2022-08-03T00:17:01;101560.53;;;17.96;100.00
44140;BME280;29803;51.048;4.686;2022-08-03T00:19:32;101548.22;;;17.93;100.00
44140;BME280;29803;51.048;4.686;2022-08-03T00:22:03;101550.09;;;17.93;100.00
44140;BME280;29803;51.048;4.686;2022-08-03T00:24:33;101550.94;;;17.93;100.00
44140;BME280;29803;51.048;4.686;2022-08-03T00:27:05;101548.59;;;17.90;100.00
44140;BME280;29803;51.048;4.686;2022-08-03T00:29:35;101547.31;;;17.86;100.00
44140;BME280;29803;51.048;4.686;2022-08-03T00:32:06;101547.72;;;17.83;100.00
44140;BME280;29803;51.048;4.686;2022-08-03T00:34:36;101550.81;;;17.80;100.00
44140;BME280;29803;51.048;4.686;2022-08-03T00:37:07;101542.66;;;17.73;100.00
44140;BME280;29803;51.048;4.686;2022-08-03T00:39:37;101550.03;;;17.65;100.00
44140;BME280;29803;51.048;4.686;2022-08-03T00:42:08;101549.34;;;17.56;100.00
44140;BME280;29803;51.048;4.686;2022-08-03T00:44:41;101549.75;;;17.53;100.00
44140;BME280;29803;51.048;4.686;2022-08-03T00:47:12;101541.97;;;17.50;100.00
44140;BME280;29803;51.048;4.686;2022-08-03T00:49:43;101540.50;;;17.47;100.00
44140;BME280;29803;51.048;4.686;2022-08-03T00:52:14;101537.13;;;17.45;100.00
44140;BME280;29803;51.048;4.686;2022-08-03T00:54:45;101536.50;;;17.43;100.00
44140;BME280;29803;51.048;4.686;2022-08-03T00:57:16;101526.88;;;17.41;100.00
44140;BME280;29803;51.048;4.686;2022-08-03T00:59:46;101538.13;;;17.38;100.00
44140;BME280;29803;51.048;4.686;2022-08-03T01:02:17;101528.94;;;17.39;100.00
44140;BME280;29803;51.048;4.686;2022-08-03T01:04:48;101535.66;;;17.43;100.00
44140;BME280;29803;51.048;4.686;2022-08-03T01:14:02;101524.16;;;17.41;100.00
44140;BME280;29803;51.048;4.686;2022-08-03T01:16:57;101522.22;;;17.34;100.00
44140;BME280;29803;51.048;4.686;2022-08-03T01:19:48;101525.91;;;17.27;100.00
44140;BME280;29803;51.048;4.686;2022-08-03T01:28:36;101527.09;;;17.18;100.00
44140;BME280;29803;51.048;4.686;2022-08-03T01:31:09;101529.34;;;17.14;100.00
44140;BME280;29803;51.048;4.686;2022-08-03T01:33:43;101522.34;;;17.05;100.00
44140;BME280;29803;51.048;4.686;2022-08-03T01:36:17;101525.84;;;16.99;100.00
44140;BME280;29803;51.048;4.686;2022-08-03T01:38:54;101518.28;;;16.94;100.00
44140;BME280;29803;51.048;4.686;2022-08-03T01:41:32;101525.78;;;16.92;100.00
44140;BME280;29803;51.048;4.686;2022-08-03T01:44:05;101520.25;;;16.86;100.00
44140;BME280;29803;51.048;4.686;2022-08-03T01:46:39;101519.34;;;16.78;100.00
44140;BME280;29803;51.048;4.686;2022-08-03T01:49:11;101514.50;;;16.74;100.00
44140;BME280;29803;51.048;4.686;2022-08-03T01:51:46;101517.84;;;16.76;100.00
44140;BME280;29803;51.048;4.686;2022-08-03T01:54:18;101514.97;;;16.77;100.00
44140;BME280;29803;51.048;4.686;2022-08-03T01:56:51;101514.31;;;16.75;100.00
44140;BME280;29803;51.048;4.686;2022-08-03T01:59:24;101508.59;;;16.70;100.00
44140;BME280;29803;51.048;4.686;2022-08-03T02:01:56;101508.16;;;16.67;100.00
44140;BME280;29803;51.048;4.686;2022-08-03T02:04:29;101513.09;;;16.63;100.00
44140;BME280;29803;51.048;4.686;2022-08-03T02:07:01;101508.25;;;16.58;100.00
44140;BME280;29803;51.048;4.686;2022-08-03T02:09:33;101509.66;;;16.54;100.00
44140;BME280;29803;51.048;4.686;2022-08-03T02:12:08;101514.59;;;16.51;100.00
44140;BME280;29803;51.048;4.686;2022-08-03T02:14:40;101506.66;;;16.49;100.00
44140;BME280;29803;51.048;4.686;2022-08-03T02:17:13;101507.50;;;16.50;100.00
44140;BME280;29803;51.048;4.686;2022-08-03T02:19:45;101511.72;;;16.52;100.00
44140;BME280;29803;51.048;4.686;2022-08-03T02:22:17;101508.19;;;16.52;100.00
44140;BME280;29803;51.048;4.686;2022-08-03T02:24:47;101511.25;;;16.49;100.00
44140;BME280;29803;51.048;4.686;2022-08-03T02:27:21;101512.66;;;16.45;100.00
44140;BME280;29803;51.048;4.686;2022-08-03T02:29:56;101509.03;;;16.38;100.00
44140;BME280;29803;51.048;4.686;2022-08-03T02:32:34;101505.22;;;16.32;100.00
44140;BME280;29803;51.048;4.686;2022-08-03T02:35:10;101507.25;;;16.30;100.00
44140;BME280;29803;51.048;4.686;2022-08-03T02:37:43;101500.16;;;16.29;100.00
44140;BME280;29803;51.048;4.686;2022-08-03T02:40:18;101500.34;;;16.27;100.00
44140;BME280;29803;51.048;4.686;2022-08-03T02:42:52;101492.59;;;16.24;100.00
44140;BME280;29803;51.048;4.686;2022-08-03T02:45:26;101490.44;;;16.20;100.00
44140;BME280;29803;51.048;4.686;2022-08-03T02:48:01;101497.75;;;16.19;100.00
44140;BME280;29803;51.048;4.686;2022-08-03T02:50:33;101489.97;;;16.16;100.00
44140;BME280;29803;51.048;4.686;2022-08-03T02:53:05;101492.03;;;16.14;100.00
44140;BME280;29803;51.048;4.686;2022-08-03T02:55:37;101490.72;;;16.10;100.00
44140;BME280;29803;51.048;4.686;2022-08-03T02:58:10;101487.75;;;16.05;100.00
44140;BME280;29803;51.048;4.686;2022-08-03T03:00:43;101485.44;;;16.02;100.00
44140;BME280;29803;51.048;4.686;2022-08-03T03:03:14;101485.78;;;15.99;100.00
44140;BME280;29803;51.048;4.686;2022-08-03T03:05:45;101489.69;;;15.96;100.00
44140;BME280;29803;51.048;4.686;2022-08-03T03:08:18;101475.88;;;15.91;100.00
44140;BME280;29803;51.048;4.686;2022-08-03T03:10:49;101486.25;;;15.88;100.00
44140;BME280;29803;51.048;4.686;2022-08-03T03:13:20;101481.00;;;15.86;100.00
44140;BME280;29803;51.048;4.686;2022-08-03T03:15:52;101479.91;;;15.80;100.00
44140;BME280;29803;51.048;4.686;2022-08-03T03:18:24;101481.31;;;15.76;100.00
44140;BME280;29803;51.048;4.686;2022-08-03T03:20:57;101484.72;;;15.70;100.00
44140;BME280;29803;51.048;4.686;2022-08-03T03:23:30;101488.00;;;15.66;100.00
44140;BME280;29803;51.048;4.686;2022-08-03T03:26:03;101487.34;;;15.64;100.00
44140;BME280;29803;51.048;4.686;2022-08-03T03:28:34;101483.81;;;15.63;100.00
44140;BME280;29803;51.048;4.686;2022-08-03T03:31:07;101484.97;;;15.61;100.00
44140;BME280;29803;51.048;4.686;2022-08-03T03:33:37;101487.22;;;15.57;100.00
44140;BME280;29803;51.048;4.686;2022-08-03T03:36:09;101489.63;;;15.52;100.00
44140;BME280;29803;51.048;4.686;2022-08-03T03:38:40;101486.44;;;15.48;100.00
44140;BME280;29803;51.048;4.686;2022-08-03T03:41:11;101481.94;;;15.41;100.00
44140;BME280;29803;51.048;4.686;2022-08-03T03:43:42;101484.06;;;15.31;100.00
44140;BME280;29803;51.048;4.686;2022-08-03T03:46:12;101485.63;;;15.25;100.00
44140;BME280;29803;51.048;4.686;2022-08-03T03:48:43;101481.44;;;15.22;100.00
44140;BME280;29803;51.048;4.686;2022-08-03T03:51:14;101477.50;;;15.25;100.00
44140;BME280;29803;51.048;4.686;2022-08-03T03:53:58;101483.59;;;15.27;100.00
44140;BME280;29803;51.048;4.686;2022-08-03T03:56:29;101489.00;;;15.27;100.00
44140;BME280;29803;51.048;4.686;2022-08-03T03:58:59;101486.66;;;15.24;100.00
44140;BME280;29803;51.048;4.686;2022-08-03T04:01:30;101480.75;;;15.20;100.00
44140;BME280;29803;51.048;4.686;2022-08-03T04:04:00;101482.81;;;15.18;100.00
44140;BME280;29803;51.048;4.686;2022-08-03T04:06:51;101475.88;;;15.16;100.00
44140;BME280;29803;51.048;4.686;2022-08-03T04:09:40;101483.34;;;15.14;100.00
44140;BME280;29803;51.048;4.686;2022-08-03T04:12:31;101488.94;;;15.12;100.00
44140;BME280;29803;51.048;4.686;2022-08-03T04:15:02;101483.25;;;15.07;100.00
44140;BME280;29803;51.048;4.686;2022-08-03T04:17:33;101485.09;;;15.07;100.00
44140;BME280;29803;51.048;4.686;2022-08-03T04:20:05;101484.91;;;15.08;100.00
44140;BME280;29803;51.048;4.686;2022-08-03T04:22:36;101492.00;;;15.09;100.00
44140;BME280;29803;51.048;4.686;2022-08-03T04:25:13;101486.41;;;15.11;100.00
44140;BME280;29803;51.048;4.686;2022-08-03T04:27:47;101493.13;;;15.15;100.00
44140;BME280;29803;51.048;4.686;2022-08-03T04:30:19;101490.63;;;15.13;100.00
44140;BME280;29803;51.048;4.686;2022-08-03T04:32:50;101491.66;;;15.12;100.00
44140;BME280;29803;51.048;4.686;2022-08-03T04:35:23;101497.06;;;15.12;100.00
44140;BME280;29803;51.048;4.686;2022-08-03T04:37:56;101501.63;;;15.12;100.00
44140;BME280;29803;51.048;4.686;2022-08-03T04:40:32;101498.06;;;15.11;100.00
44140;BME280;29803;51.048;4.686;2022-08-03T04:43:04;101498.25;;;15.10;100.00
44140;BME280;29803;51.048;4.686;2022-08-03T04:45:36;101499.06;;;15.10;100.00
44140;BME280;29803;51.048;4.686;2022-08-03T04:48:08;101509.88;;;15.10;100.00
44140;BME280;29803;51.048;4.686;2022-08-03T04:50:40;101508.88;;;15.11;100.00
44140;BME280;29803;51.048;4.686;2022-08-03T04:53:11;101502.06;;;15.15;100.00
44140;BME280;29803;51.048;4.686;2022-08-03T04:55:42;101514.22;;;15.19;100.00
44140;BME280;29803;51.048;4.686;2022-08-03T04:58:12;101508.63;;;15.21;100.00
44140;BME280;29803;51.048;4.686;2022-08-03T05:00:43;101515.19;;;15.26;100.00
44140;BME280;29803;51.048;4.686;2022-08-03T05:03:14;101515.31;;;15.33;100.00
44140;BME280;29803;51.048;4.686;2022-08-03T05:05:45;101510.69;;;15.42;100.00
44140;BME280;29803;51.048;4.686;2022-08-03T05:08:15;101516.19;;;15.48;100.00
44140;BME280;29803;51.048;4.686;2022-08-03T05:10:46;101521.88;;;15.53;100.00
44140;BME280;29803;51.048;4.686;2022-08-03T05:13:16;101517.13;;;15.55;100.00
44140;BME280;29803;51.048;4.686;2022-08-03T05:15:47;101520.97;;;15.61;100.00
44140;BME280;29803;51.048;4.686;2022-08-03T05:18:18;101515.72;;;15.68;100.00
44140;BME280;29803;51.048;4.686;2022-08-03T05:20:49;101523.09;;;15.74;100.00
44140;BME280;29803;51.048;4.686;2022-08-03T05:23:19;101527.59;;;15.82;100.00
44140;BME280;29803;51.048;4.686;2022-08-03T05:25:50;101521.72;;;15.93;100.00
44140;BME280;29803;51.048;4.686;2022-08-03T05:28:20;101525.84;;;16.03;100.00
44140;BME280;29803;51.048;4.686;2022-08-03T05:30:51;101526.69;;;16.19;100.00
44140;BME280;29803;51.048;4.686;2022-08-03T05:33:21;101520.22;;;16.35;100.00
44140;BME280;29803;51.048;4.686;2022-08-03T05:35:52;101522.34;;;16.54;100.00
44140;BME280;29803;51.048;4.686;2022-08-03T05:38:22;101527.84;;;16.75;100.00
44140;BME280;29803;51.048;4.686;2022-08-03T05:40:53;101532.28;;;16.98;100.00
44140;BME280;29803;51.048;4.686;2022-08-03T05:43:23;101529.97;;;17.16;100.00
44140;BME280;29803;51.048;4.686;2022-08-03T05:45:54;101534.13;;;17.33;100.00
44140;BME280;29803;51.048;4.686;2022-08-03T05:48:24;101530.75;;;17.53;100.00
44140;BME280;29803;51.048;4.686;2022-08-03T05:50:55;101536.38;;;17.73;100.00
44140;BME280;29803;51.048;4.686;2022-08-03T05:53:25;101530.66;;;17.89;100.00
44140;BME280;29803;51.048;4.686;2022-08-03T05:55:56;101535.78;;;18.12;100.00
44140;BME280;29803;51.048;4.686;2022-08-03T05:58:26;101536.78;;;18.32;100.00
44140;BME280;29803;51.048;4.686;2022-08-03T06:00:57;101537.41;;;18.69;100.00
44140;BME280;29803;51.048;4.686;2022-08-03T06:03:27;101541.34;;;19.28;100.00
44140;BME280;29803;51.048;4.686;2022-08-03T06:05:58;101528.31;;;20.29;100.00
44140;BME280;29803;51.048;4.686;2022-08-03T06:08:28;101526.59;;;21.31;100.00
44140;BME280;29803;51.048;4.686;2022-08-03T06:10:59;101523.53;;;21.96;100.00
44140;BME280;29803;51.048;4.686;2022-08-03T06:13:30;101524.19;;;22.71;100.00
44140;BME280;29803;51.048;4.686;2022-08-03T06:16:01;101528.13;;;23.36;100.00
44140;BME280;29803;51.048;4.686;2022-08-03T06:18:31;101531.69;;;24.01;100.00
44140;BME280;29803;51.048;4.686;2022-08-03T06:21:02;101524.13;;;24.32;100.00
44140;BME280;29803;51.048;4.686;2022-08-03T06:23:33;101534.22;;;24.67;100.00
44140;BME280;29803;51.048;4.686;2022-08-03T06:26:04;101534.38;;;25.17;100.00
44140;BME280;29803;51.048;4.686;2022-08-03T06:28:34;101536.25;;;25.45;100.00
44140;BME280;29803;51.048;4.686;2022-08-03T06:31:05;101534.53;;;25.56;100.00
44140;BME280;29803;51.048;4.686;2022-08-03T06:33:35;101533.25;;;25.97;100.00
44140;BME280;29803;51.048;4.686;2022-08-03T06:36:06;101538.63;;;26.26;100.00
44140;BME280;29803;51.048;4.686;2022-08-03T06:38:36;101538.72;;;26.53;100.00
44140;BME280;29803;51.048;4.686;2022-08-03T06:41:06;101534.06;;;27.02;100.00
44140;BME280;29803;51.048;4.686;2022-08-03T06:43:37;101539.91;;;27.33;100.00
44140;BME280;29803;51.048;4.686;2022-08-03T06:46:08;101539.13;;;27.38;100.00
44140;BME280;29803;51.048;4.686;2022-08-03T06:48:40;101538.84;;;27.39;100.00
44140;BME280;29803;51.048;4.686;2022-08-03T06:51:10;101550.38;;;27.63;100.00
44140;BME280;29803;51.048;4.686;2022-08-03T06:53:41;101537.16;;;28.02;100.00
44140;BME280;29803;51.048;4.686;2022-08-03T06:56:11;101551.00;;;28.60;100.00
44140;BME280;29803;51.048;4.686;2022-08-03T06:58:42;101547.91;;;27.99;100.00
44140;BME280;29803;51.048;4.686;2022-08-03T07:01:13;101534.69;;;28.48;100.00
44140;BME280;29803;51.048;4.686;2022-08-03T07:03:43;101541.84;;;28.44;100.00
44140;BME280;29803;51.048;4.686;2022-08-03T07:06:14;101543.84;;;28.64;100.00
44140;BME280;29803;51.048;4.686;2022-08-03T07:08:44;101550.66;;;29.14;100.00
44140;BME280;29803;51.048;4.686;2022-08-03T07:11:15;101549.69;;;28.73;100.00
44140;BME280;29803;51.048;4.686;2022-08-03T07:13:46;101548.19;;;29.33;96.46
44140;BME280;29803;51.048;4.686;2022-08-03T07:16:16;101552.31;;;29.40;94.82
44140;BME280;29803;51.048;4.686;2022-08-03T07:18:47;101559.78;;;30.06;87.52
44140;BME280;29803;51.048;4.686;2022-08-03T07:21:17;101563.41;;;29.86;90.31
44140;BME280;29803;51.048;4.686;2022-08-03T07:23:48;101560.41;;;29.57;87.77
44140;BME280;29803;51.048;4.686;2022-08-03T07:26:18;101560.91;;;29.49;91.88
44140;BME280;29803;51.048;4.686;2022-08-03T07:28:48;101560.63;;;29.51;92.81
44140;BME280;29803;51.048;4.686;2022-08-03T07:31:19;101566.16;;;29.35;90.74
44140;BME280;29803;51.048;4.686;2022-08-03T07:33:50;101560.91;;;29.39;94.14
44140;BME280;29803;51.048;4.686;2022-08-03T07:36:20;101563.69;;;29.64;92.40
44140;BME280;29803;51.048;4.686;2022-08-03T07:38:51;101568.38;;;30.00;93.02
44140;BME280;29803;51.048;4.686;2022-08-03T07:41:22;101571.13;;;30.20;88.86
44140;BME280;29803;51.048;4.686;2022-08-03T07:43:52;101568.59;;;30.34;83.78
44140;BME280;29803;51.048;4.686;2022-08-03T07:46:23;101568.06;;;30.11;85.37
44140;BME280;29803;51.048;4.686;2022-08-03T07:48:53;101557.84;;;30.07;86.95
44140;BME280;29803;51.048;4.686;2022-08-03T07:51:24;101561.19;;;29.42;87.74
44140;BME280;29803;51.048;4.686;2022-08-03T07:53:54;101553.47;;;29.70;88.15
44140;BME280;29803;51.048;4.686;2022-08-03T07:56:27;101555.94;;;30.07;83.43
44140;BME280;29803;51.048;4.686;2022-08-03T07:58:57;101554.22;;;30.22;83.43
44140;BME280;29803;51.048;4.686;2022-08-03T08:01:29;101554.16;;;30.47;78.98
44140;BME280;29803;51.048;4.686;2022-08-03T08:04:01;101547.47;;;30.58;79.40
44140;BME280;29803;51.048;4.686;2022-08-03T08:06:32;101553.22;;;30.67;76.88
44140;BME280;29803;51.048;4.686;2022-08-03T08:09:03;101552.69;;;31.19;74.39
44140;BME280;29803;51.048;4.686;2022-08-03T08:11:33;101553.03;;;31.52;71.04
44140;BME280;29803;51.048;4.686;2022-08-03T08:14:04;101552.09;;;31.23;71.84
44140;BME280;29803;51.048;4.686;2022-08-03T08:16:34;101543.66;;;31.04;73.99
44140;BME280;29803;51.048;4.686;2022-08-03T08:19:05;101549.28;;;31.38;71.48
44140;BME280;29803;51.048;4.686;2022-08-03T08:21:35;101544.59;;;31.33;70.68
44140;BME280;29803;51.048;4.686;2022-08-03T08:24:06;101533.81;;;31.27;71.32
44140;BME280;29803;51.048;4.686;2022-08-03T08:26:36;101534.03;;;30.91;72.29
44140;BME280;29803;51.048;4.686;2022-08-03T08:29:07;101538.19;;;30.93;71.88
44140;BME280;29803;51.048;4.686;2022-08-03T08:31:38;101529.25;;;31.02;72.24
44140;BME280;29803;51.048;4.686;2022-08-03T08:34:08;101542.53;;;31.49;69.63
44140;BME280;29803;51.048;4.686;2022-08-03T08:36:39;101521.41;;;30.75;70.91
44140;BME280;29803;51.048;4.686;2022-08-03T08:39:10;101532.44;;;30.80;75.54
44140;BME280;29803;51.048;4.686;2022-08-03T08:41:41;101530.34;;;31.45;67.71
44140;BME280;29803;51.048;4.686;2022-08-03T08:44:11;101529.56;;;31.00;68.76
44140;BME280;29803;51.048;4.686;2022-08-03T08:46:42;101526.63;;;30.76;71.15
44140;BME280;29803;51.048;4.686;2022-08-03T08:49:15;101529.38;;;30.81;67.17
44140;BME280;29803;51.048;4.686;2022-08-03T08:51:48;101531.47;;;31.44;65.58
44140;BME280;29803;51.048;4.686;2022-08-03T08:54:20;101525.97;;;31.39;64.38
44140;BME280;29803;51.048;4.686;2022-08-03T08:56:52;101519.31;;;30.95;67.86
44140;BME280;29803;51.048;4.686;2022-08-03T08:59:26;101523.34;;;31.18;67.68
44140;BME280;29803;51.048;4.686;2022-08-03T09:01:57;101517.78;;;31.53;65.43
44140;BME280;29803;51.048;4.686;2022-08-03T09:04:28;101513.59;;;31.21;65.43
44140;BME280;29803;51.048;4.686;2022-08-03T09:07:00;101516.81;;;30.99;66.22
44140;BME280;29803;51.048;4.686;2022-08-03T09:09:31;101518.63;;;31.19;65.19
44140;BME280;29803;51.048;4.686;2022-08-03T09:12:02;101519.38;;;31.64;63.76
44140;BME280;29803;51.048;4.686;2022-08-03T09:14:32;101529.53;;;32.03;62.86
44140;BME280;29803;51.048;4.686;2022-08-03T09:17:03;101523.53;;;32.86;56.44
44140;BME280;29803;51.048;4.686;2022-08-03T09:19:34;101524.91;;;32.46;61.16
44140;BME280;29803;51.048;4.686;2022-08-03T09:22:23;101527.00;;;32.06;60.42
44140;BME280;29803;51.048;4.686;2022-08-03T09:24:57;101532.03;;;32.28;60.36
44140;BME280;29803;51.048;4.686;2022-08-03T09:27:28;101526.97;;;32.11;60.44
44140;BME280;29803;51.048;4.686;2022-08-03T09:30:13;101524.31;;;32.49;60.93
44140;BME280;29803;51.048;4.686;2022-08-03T09:32:46;101519.00;;;32.71;57.65
44140;BME280;29803;51.048;4.686;2022-08-03T09:35:25;101521.19;;;32.74;58.64
44140;BME280;29803;51.048;4.686;2022-08-03T09:38:09;101518.94;;;32.77;59.44
44140;BME280;29803;51.048;4.686;2022-08-03T09:40:41;101517.88;;;32.72;59.16
44140;BME280;29803;51.048;4.686;2022-08-03T09:43:12;101519.34;;;32.89;59.80
44140;BME280;29803;51.048;4.686;2022-08-03T09:45:43;101507.22;;;33.17;58.78
44140;BME280;29803;51.048;4.686;2022-08-03T09:48:29;101518.22;;;32.90;57.43
44140;BME280;29803;51.048;4.686;2022-08-03T09:51:03;101511.06;;;33.03;57.25
44140;BME280;29803;51.048;4.686;2022-08-03T09:53:44;101515.19;;;33.43;56.76
44140;BME280;29803;51.048;4.686;2022-08-03T09:56:15;101511.53;;;33.29;56.59
44140;BME280;29803;51.048;4.686;2022-08-03T09:58:46;101521.22;;;32.93;56.37
44140;BME280;29803;51.048;4.686;2022-08-03T10:01:17;101511.34;;;32.82;57.25
44140;BME280;29803;51.048;4.686;2022-08-03T10:03:57;101518.94;;;32.77;57.29
44140;BME280;29803;51.048;4.686;2022-08-03T10:06:28;101522.34;;;32.26;59.38
44140;BME280;29803;51.048;4.686;2022-08-03T10:09:11;101515.69;;;32.51;58.51
44140;BME280;29803;51.048;4.686;2022-08-03T10:11:43;101509.78;;;32.33;60.48
44140;BME280;29803;51.048;4.686;2022-08-03T10:14:16;101508.50;;;32.68;59.39
44140;BME280;29803;51.048;4.686;2022-08-03T10:17:04;101505.72;;;32.87;58.62
44140;BME280;29803;51.048;4.686;2022-08-03T10:19:35;101500.94;;;33.12;58.90
44140;BME280;29803;51.048;4.686;2022-08-03T10:22:11;101501.22;;;32.72;59.40
44140;BME280;29803;51.048;4.686;2022-08-03T10:24:58;101498.16;;;32.93;59.79
44140;BME280;29803;51.048;4.686;2022-08-03T10:27:46;101494.84;;;33.29;56.19
44140;BME280;29803;51.048;4.686;2022-08-03T10:30:17;101490.19;;;33.24;55.98
44140;BME280;29803;51.048;4.686;2022-08-03T10:32:51;101481.63;;;33.02;56.12
44140;BME280;29803;51.048;4.686;2022-08-03T10:35:25;101481.28;;;32.89;56.88
44140;BME280;29803;51.048;4.686;2022-08-03T10:40:44;101483.00;;;33.04;58.28
44140;BME280;29803;51.048;4.686;2022-08-03T10:43:19;101483.91;;;32.38;58.50
44140;BME280;29803;51.048;4.686;2022-08-03T10:45:52;101486.97;;;32.12;60.37
44140;BME280;29803;51.048;4.686;2022-08-03T10:48:24;101478.94;;;32.35;59.88
44140;BME280;29803;51.048;4.686;2022-08-03T10:50:56;101481.91;;;32.62;57.56
44140;BME280;29803;51.048;4.686;2022-08-03T10:53:39;101476.28;;;32.86;56.55
44140;BME280;29803;51.048;4.686;2022-08-03T11:05:55;101463.47;;;33.09;57.41
44140;BME280;29803;51.048;4.686;2022-08-03T11:08:44;101458.13;;;33.45;55.66
44140;BME280;29803;51.048;4.686;2022-08-03T11:13:58;101463.94;;;33.30;53.80
44140;BME280;29803;51.048;4.686;2022-08-03T11:16:33;101451.59;;;33.04;53.65
44140;BME280;29803;51.048;4.686;2022-08-03T11:19:07;101452.72;;;32.84;55.74
44140;BME280;29803;51.048;4.686;2022-08-03T11:27:29;101444.31;;;32.89;54.89
44140;BME280;29803;51.048;4.686;2022-08-03T11:30:02;101447.16;;;33.03;55.08
44140;BME280;29803;51.048;4.686;2022-08-03T11:32:51;101456.63;;;32.64;55.27
44140;BME280;29803;51.048;4.686;2022-08-03T11:35:56;101454.28;;;32.52;55.71
44140;BME280;29803;51.048;4.686;2022-08-03T11:38:28;101459.41;;;32.45;55.69
44140;BME280;29803;51.048;4.686;2022-08-03T11:40:59;101454.34;;;32.47;56.21
44140;BME280;29803;51.048;4.686;2022-08-03T11:46:06;101444.47;;;32.79;55.04
44140;BME280;29803;51.048;4.686;2022-08-03T11:48:39;101444.97;;;32.81;54.62
44140;BME280;29803;51.048;4.686;2022-08-03T11:51:31;101443.94;;;32.77;55.64
44140;BME280;29803;51.048;4.686;2022-08-03T11:54:04;101439.63;;;33.03;56.59
44140;BME280;29803;51.048;4.686;2022-08-03T11:56:47;101445.41;;;32.88;54.11
44140;BME280;29803;51.048;4.686;2022-08-03T11:59:30;101443.13;;;32.95;52.46
44140;BME280;29803;51.048;4.686;2022-08-03T12:02:14;101448.31;;;33.34;53.29
44140;BME280;29803;51.048;4.686;2022-08-03T12:04:50;101438.25;;;32.49;52.22
44140;BME280;29803;51.048;4.686;2022-08-03T12:07:21;101440.16;;;32.86;52.90
44140;BME280;29803;51.048;4.686;2022-08-03T12:10:11;101431.03;;;33.05;52.22
44140;BME280;29803;51.048;4.686;2022-08-03T12:12:42;101440.31;;;32.76;53.49
44140;BME280;29803;51.048;4.686;2022-08-03T12:15:14;101435.53;;;32.44;53.89
44140;BME280;29803;51.048;4.686;2022-08-03T12:17:44;101449.34;;;32.49;56.63
44140;BME280;29803;51.048;4.686;2022-08-03T12:20:21;101436.81;;;32.70;54.63
44140;BME280;29803;51.048;4.686;2022-08-03T12:22:52;101439.03;;;32.87;52.12
44140;BME280;29803;51.048;4.686;2022-08-03T12:25:25;101421.72;;;32.58;55.00
44140;BME280;29803;51.048;4.686;2022-08-03T12:28:07;101426.22;;;32.72;54.61
44140;BME280;29803;51.048;4.686;2022-08-03T12:30:38;101433.00;;;33.18;54.89
44140;BME280;29803;51.048;4.686;2022-08-03T12:33:27;101427.88;;;33.25;53.38
44140;BME280;29803;51.048;4.686;2022-08-03T12:36:17;101431.75;;;33.43;52.37
44140;BME280;29803;51.048;4.686;2022-08-03T12:39:05;101425.63;;;33.27;52.98
44140;BME280;29803;51.048;4.686;2022-08-03T12:41:38;101430.44;;;33.21;52.15
44140;BME280;29803;51.048;4.686;2022-08-03T12:44:09;101426.78;;;33.07;54.53
44140;BME280;29803;51.048;4.686;2022-08-03T12:46:40;101423.47;;;33.38;54.21
44140;BME280;29803;51.048;4.686;2022-08-03T12:49:13;101422.00;;;33.73;52.46
44140;BME280;29803;51.048;4.686;2022-08-03T12:54:16;101428.59;;;34.46;51.83
44140;BME280;29803;51.048;4.686;2022-08-03T12:57:00;101403.66;;;34.63;48.23
44140;BME280;29803;51.048;4.686;2022-08-03T12:59:32;101420.66;;;34.39;50.15
44140;BME280;29803;51.048;4.686;2022-08-03T13:02:03;101399.75;;;34.64;48.27
44140;BME280;29803;51.048;4.686;2022-08-03T13:04:35;101420.38;;;34.63;48.44
44140;BME280;29803;51.048;4.686;2022-08-03T13:07:08;101423.03;;;34.46;49.80
44140;BME280;29803;51.048;4.686;2022-08-03T13:09:42;101416.19;;;34.52;48.71
44140;BME280;29803;51.048;4.686;2022-08-03T13:12:15;101408.97;;;34.73;49.31
44140;BME280;29803;51.048;4.686;2022-08-03T13:14:48;101410.06;;;34.86;47.45
44140;BME280;29803;51.048;4.686;2022-08-03T13:17:19;101413.94;;;34.99;47.30
44140;BME280;29803;51.048;4.686;2022-08-03T13:19:50;101407.75;;;35.02;45.77
44140;BME280;29803;51.048;4.686;2022-08-03T13:22:23;101412.78;;;34.41;45.92
44140;BME280;29803;51.048;4.686;2022-08-03T13:24:55;101412.50;;;33.88;48.16
44140;BME280;29803;51.048;4.686;2022-08-03T13:27:27;101404.69;;;33.76;48.86
44140;BME280;29803;51.048;4.686;2022-08-03T13:29:58;101398.72;;;33.55;49.08
44140;BME280;29803;51.048;4.686;2022-08-03T13:32:28;101396.22;;;33.54;49.09
44140;BME280;29803;51.048;4.686;2022-08-03T13:34:59;101390.19;;;33.33;49.94
44140;BME280;29803;51.048;4.686;2022-08-03T13:37:31;101394.47;;;33.58;50.97
44140;BME280;29803;51.048;4.686;2022-08-03T13:40:04;101384.50;;;33.70;49.25
44140;BME280;29803;51.048;4.686;2022-08-03T13:42:35;101402.94;;;33.80;48.18
44140;BME280;29803;51.048;4.686;2022-08-03T13:45:06;101394.59;;;33.66;48.96
44140;BME280;29803;51.048;4.686;2022-08-03T13:47:38;101388.81;;;33.49;48.32
44140;BME280;29803;51.048;4.686;2022-08-03T13:50:08;101394.69;;;33.61;49.08
44140;BME280;29803;51.048;4.686;2022-08-03T13:52:39;101388.09;;;33.57;48.95
44140;BME280;29803;51.048;4.686;2022-08-03T13:55:09;101388.91;;;33.58;49.23